Latest Weather Observations for Cape Grim

IDT60801

Issued at 6:05 am EDT Saturday 1 November 2014 (issued every 30 minutes, with the page automatically refreshed every 10 minutes)

About weather observations | Map of weather stations | Latest weather observations for TAS | Other Formats
Station Details ID: 091331 Name: CAPE GRIM Lat: -40.68 Lon: 144.69 Height: 86.0 m
Data from the previous 72 hours. | See also: Recent months at Cape Grim
Date/Time
EDT
Temp
°C
App
Temp
°C
Dew
Point
Rel
Hum
%
Delta-T
°C
Wind Press
QNH
hPa
Press
MSL
hPa
Rain
since 9 am
mm
Dir
 
Spd
km/h
Gust
km/h
Spd
kts
Gust
kts
01/06:00am 11.9 4.9 8.4 79 1.7 WSW 35 61 19 33 995.8 995.8 -
01/05:30am 12.2 5.4 9.2 82 1.5 W 35 54 19 29 995.4 995.4 -
01/05:02am 12.1 5.4 9.8 86 1.2 W 35 54 19 29 995.3 995.3 -
01/05:00am 12.0 4.9 9.7 86 1.2 W 37 54 20 29 995.2 995.2 -
01/04:54am 12.0 5.4 10.1 88 1.0 W 35 54 19 29 995.1 995.1 -
01/04:39am 11.8 5.3 10.5 92 0.7 W 35 59 19 32 995.0 995.0 -
01/04:30am 12.7 6.1 11.4 92 0.7 WNW 37 48 20 26 995.0 995.0 -
01/04:05am 12.6 6.4 11.3 92 0.7 W 35 46 19 25 994.9 994.9 -
01/04:00am 12.6 6.7 11.3 92 0.7 W 33 46 18 25 994.9 994.9 -
01/03:55am 12.6 6.9 11.3 92 0.7 W 32 43 17 23 994.9 994.9 -
01/03:30am 12.4 7.1 11.1 92 0.7 W 30 41 16 22 994.8 994.8 -
01/03:00am 12.4 8.6 11.0 91 0.7 W 22 30 12 16 994.9 994.9 -
01/02:30am 12.5 9.3 11.1 91 0.7 W 19 30 10 16 994.3 994.3 -
01/02:28am 12.5 9.1 11.1 91 0.7 W 20 30 11 16 994.5 994.5 -
01/02:00am 12.8 8.7 11.4 91 0.7 W 24 35 13 19 996.5 996.5 1.0
01/01:30am 13.3 7.8 11.9 91 0.8 W 32 39 17 21 997.3 997.3 0.2
01/01:00am 13.8 10.4 12.4 91 0.8 W 22 32 12 17 996.9 996.9 0.2
01/12:30am 13.9 11.1 12.5 91 0.8 W 19 30 10 16 996.0 996.0 0.2
01/12:21am 14.0 10.6 12.6 91 0.8 W 22 32 12 17 996.2 996.2 0.2
01/12:00am 14.1 11.1 12.5 90 0.9 WNW 20 26 11 14 996.5 996.5 0.2
 
Date/Time
EDT
Temp
°C
App
Temp
°C
Dew
Point
Rel
Hum
%
Delta-T
°C
Wind Press
QNH
hPa
Press
MSL
hPa
Rain
since 9 am
mm
Dir
 
Spd
km/h
Gust
km/h
Spd
kts
Gust
kts
31/11:49pm 14.2 12.2 12.8 91 0.8 WNW 15 24 8 13 996.4 996.4 0.2
31/11:30pm 14.3 11.7 13.2 93 0.6 NNW 19 28 10 15 996.5 996.5 0.2
31/11:00pm 13.3 10.2 12.2 93 0.6 ENE 20 24 11 13 997.0 997.0 0.2
31/10:30pm 13.3 9.4 12.2 93 0.6 E 24 28 13 15 996.8 996.8 0.2
31/10:00pm 13.4 9.5 12.1 92 0.7 E 24 28 13 15 996.5 996.5 0.2
31/09:30pm 13.6 8.6 12.3 92 0.7 E 30 35 16 19 997.1 997.1 0.2
31/09:00pm 13.6 8.1 12.3 92 0.7 E 33 39 18 21 996.7 996.7 0.2
31/08:30pm 13.5 7.9 12.2 92 0.7 E 33 39 18 21 996.5 996.5 0.2
31/08:00pm 13.6 8.2 12.3 92 0.7 E 32 37 17 20 997.3 997.3 0.2
31/07:30pm 13.8 7.1 12.4 91 0.8 E 39 48 21 26 997.3 997.3 0.2
31/07:00pm 13.9 6.9 12.5 91 0.8 E 41 48 22 26 997.1 997.1 0.2
31/06:30pm 14.0 6.5 12.2 89 1.0 E 43 52 23 28 997.6 997.6 0.2
31/06:00pm 14.2 6.7 12.2 88 1.1 E 43 52 23 28 998.3 998.3 0.2
31/05:30pm 14.8 7.3 12.1 84 1.5 E 43 54 23 29 998.3 998.3 0.2
31/05:00pm 14.7 7.2 12.2 85 1.4 ENE 43 54 23 29 998.7 998.7 0.2
31/04:30pm 14.8 7.7 12.3 85 1.4 ENE 41 48 22 26 999.2 999.2 0.2
31/04:00pm 14.7 8.8 12.4 86 1.3 ENE 35 44 19 24 1000.1 1000.1 0.2
31/03:30pm 14.4 8.5 12.4 88 1.1 E 35 43 19 23 1000.8 1000.8 0.2
31/03:00pm 14.2 8.1 11.9 86 1.2 ENE 35 41 19 22 1001.3 1001.3 0.2
31/02:30pm 14.5 8.9 11.6 83 1.6 ENE 32 39 17 21 1001.9 1001.9 0.2
31/02:00pm 14.7 8.1 11.5 81 1.7 NE 37 48 20 26 1002.3 1002.3 0.2
31/01:30pm 15.2 9.3 12.3 83 1.6 NE 35 41 19 22 1002.8 1002.8 0.2
31/01:00pm 14.8 7.7 12.3 85 1.4 NNE 41 46 22 25 1003.2 1003.3 0.2
31/12:30pm 14.8 8.2 12.5 86 1.3 NE 39 44 21 24 1003.6 1003.7 0.2
31/12:00pm 15.2 10.7 13.7 91 0.8 NNE 30 35 16 19 1004.1 1004.2 0.2
31/11:31am 13.7 8.0 11.9 89 1.0 NNE 33 39 18 21 1005.0 1005.1 0.2
31/11:30am 13.7 8.0 11.9 89 1.0 NNE 33 39 18 21 1005.0 1005.1 0.2
31/11:00am 13.3 7.6 11.7 90 0.9 NNE 33 43 18 23 1005.1 1005.2 0.2
31/10:50am 13.6 7.6 12.0 90 0.9 N 35 43 19 23 1005.2 1005.3 0.2
31/10:38am 13.4 7.7 11.8 90 0.9 N 33 44 18 24 1005.4 1005.5 0.2
31/10:30am 13.1 7.4 11.7 91 0.7 N 33 41 18 22 1005.4 1005.5 0.2
31/10:00am 13.2 7.7 11.8 91 0.8 N 32 39 17 21 1006.6 1006.6 0.0
31/09:30am 12.7 6.8 11.3 91 0.7 N 33 43 18 23 1006.5 1006.5 0.0
31/09:00am 12.4 7.4 10.8 90 0.8 N 28 39 15 21 1007.1 1007.1 2.6
31/08:56am 12.3 7.6 10.7 90 0.8 N 26 35 14 19 1007.3 1007.3 2.6
31/08:30am 12.0 6.8 10.4 90 0.8 N 28 33 15 18 1007.3 1007.3 2.0
31/08:00am 12.1 6.5 10.0 87 1.1 N 30 35 16 19 1007.3 1007.3 1.2
31/07:30am 11.9 7.3 9.5 85 1.2 N 24 32 13 17 1007.7 1007.7 1.0
31/07:00am 12.2 6.7 9.2 82 1.5 NNW 28 33 15 18 1008.1 1008.1 0.8
31/06:30am 12.4 7.3 9.2 81 1.6 NNW 26 32 14 17 1008.1 1008.1 0.8
31/06:00am 12.4 7.9 8.7 78 1.9 NNW 22 26 12 14 1007.8 1007.8 0.8
31/05:30am 12.3 7.8 8.4 77 1.9 NW 22 30 12 16 1008.2 1008.2 0.8
31/05:00am 12.4 7.7 7.7 73 2.3 WNW 22 30 12 16 1008.4 1008.4 0.8
31/04:30am 12.5 7.1 7.8 73 2.3 WNW 26 33 14 18 1008.7 1008.7 0.8
31/04:00am 12.4 6.8 7.3 71 2.5 WNW 26 32 14 17 1009.0 1009.0 0.8
31/03:30am 12.5 7.2 8.4 76 2.0 WNW 26 35 14 19 1009.4 1009.4 0.8
31/03:00am 12.5 7.9 8.0 74 2.2 W 22 28 12 15 1009.5 1009.5 0.8
31/02:30am 12.3 7.4 8.4 77 1.9 W 24 32 13 17 1009.7 1009.7 0.8
31/02:00am 12.0 7.6 9.0 82 1.5 W 22 28 12 15 1010.1 1010.1 0.8
31/01:30am 12.1 7.2 9.8 86 1.2 W 26 35 14 19 1010.7 1010.7 0.8
31/01:00am 11.9 7.9 10.3 90 0.8 W 22 30 12 16 1011.1 1011.1 0.6
31/12:30am 11.5 7.0 9.9 90 0.8 W 24 32 13 17 1011.4 1011.4 0.6
31/12:26am 11.5 7.0 9.9 90 0.8 W 24 32 13 17 1011.4 1011.4 0.6
31/12:07am 11.5 6.2 9.8 89 0.9 W 28 39 15 21 1011.6 1011.6 0.6
31/12:00am 12.2 7.3 10.1 87 1.1 W 26 33 14 18 1011.6 1011.6 0.6
 
Date/Time
EDT
Temp
°C
App
Temp
°C
Dew
Point
Rel
Hum
%
Delta-T
°C
Wind Press
QNH
hPa
Press
MSL
hPa
Rain
since 9 am
mm
Dir
 
Spd
km/h
Gust
km/h
Spd
kts
Gust
kts
30/11:30pm 12.4 6.8 10.1 86 1.2 W 30 39 16 21 1011.6 1011.6 0.6
30/11:00pm 12.5 6.9 10.0 85 1.3 W 30 39 16 21 1011.7 1011.7 0.6
30/10:30pm 12.4 7.3 10.5 88 1.0 W 28 33 15 18 1011.9 1011.9 0.6
30/10:00pm 12.3 7.6 10.5 89 0.9 W 26 35 14 19 1012.0 1012.0 0.6
30/09:30pm 12.1 6.9 10.3 89 0.9 W 28 35 15 19 1012.0 1012.0 0.6
30/09:00pm 12.1 7.0 10.5 90 0.8 W 28 37 15 20 1011.9 1011.9 0.6
30/08:30pm 12.2 7.0 10.3 88 1.0 W 28 35 15 19 1011.8 1011.8 0.6
30/08:00pm 12.0 7.2 10.2 89 0.9 W 26 33 14 18 1011.6 1011.6 0.6
30/07:30pm 11.9 8.2 10.1 89 0.9 W 20 28 11 15 1011.4 1011.4 0.6
30/07:00pm 12.2 8.2 10.3 88 1.0 W 22 30 12 16 1011.3 1011.3 0.6
30/06:30pm 12.5 7.7 10.2 86 1.2 W 26 37 14 20 1011.2 1011.2 0.6
30/06:00pm 12.8 8.4 10.5 86 1.2 W 24 39 13 21 1011.3 1011.3 0.6
30/05:30pm 12.7 8.8 10.9 89 0.9 W 22 33 12 18 1011.3 1011.3 0.6
30/05:00pm 12.4 7.7 10.8 90 0.8 W 26 41 14 22 1011.5 1011.5 0.6
30/04:42pm 12.3 7.7 10.9 91 0.7 W 26 37 14 20 1011.6 1011.6 0.6
30/04:30pm 12.2 7.2 10.8 91 0.7 W 28 37 15 20 1011.6 1011.6 0.6
30/04:12pm 11.6 6.0 10.0 90 0.8 W 30 50 16 27 1011.6 1011.6 0.6
30/04:09pm 12.0 6.9 10.6 91 0.7 W 28 39 15 21 1011.7 1011.7 0.6
30/04:00pm 12.0 6.8 10.4 90 0.8 W 28 44 15 24 1011.6 1011.6 0.6
30/03:40pm 12.3 8.0 10.7 90 0.8 W 24 39 13 21 1011.6 1011.6 0.2
30/03:30pm 11.8 5.8 10.2 90 0.8 W 32 46 17 25 1011.7 1011.7 0.2
30/03:00pm 12.5 6.7 9.5 82 1.5 W 30 50 16 27 1011.7 1011.7 0.0
30/02:59pm 12.9 7.1 9.5 80 1.7 W 30 50 16 27 1011.7 1011.7 0.0
30/02:30pm 13.0 8.2 10.4 84 1.4 W 26 35 14 19 1011.8 1011.8 0.0
30/02:02pm 12.4 7.1 10.0 85 1.2 W 28 46 15 25 1011.7 1011.7 0.0
30/02:00pm 12.3 6.6 9.7 84 1.3 W 30 46 16 25 1011.8 1011.8 0.0
30/01:54pm 12.5 6.9 8.8 78 1.9 W 28 46 15 25 1011.8 1011.8 0.0
30/01:30pm 13.9 8.4 9.3 74 2.4 W 28 37 15 20 1011.8 1011.8 0.0
30/01:00pm 13.7 8.6 9.2 74 2.3 W 26 35 14 19 1011.7 1011.7 0.0
30/12:30pm 13.9 9.3 9.7 76 2.2 W 24 39 13 21 1011.8 1011.8 0.0
30/12:00pm 13.4 7.6 9.6 78 2.0 W 30 41 16 22 1011.9 1011.9 0.0
30/11:30am 13.8 9.2 9.5 75 2.2 W 24 33 13 18 1012.2 1012.2 0.0
30/11:00am 13.8 9.7 10.0 78 2.0 W 22 30 12 16 1012.1 1012.1 0.0
30/10:30am 13.3 8.3 9.7 79 1.9 W 26 35 14 19 1012.3 1012.3 0.0
30/10:00am 13.0 8.0 9.4 79 1.8 W 26 35 14 19 1012.3 1012.3 0.0
30/09:30am 12.9 7.0 9.2 78 1.9 W 30 41 16 22 1012.3 1012.3 0.0
30/09:00am 12.6 7.3 9.8 83 1.4 W 28 37 15 20 1012.1 1012.1 1.2
30/08:30am 12.3 7.0 9.7 84 1.3 W 28 43 15 23 1012.0 1012.0 1.2
30/08:00am 12.1 6.8 9.7 85 1.2 W 28 46 15 25 1011.8 1011.8 1.2
30/07:30am 11.4 7.5 9.5 88 1.0 WSW 20 37 11 20 1011.6 1011.6 1.2
30/07:00am 12.5 6.6 9.0 79 1.8 W 30 41 16 22 1011.3 1011.3 1.2
30/06:30am 12.3 7.7 9.7 84 1.3 W 24 37 13 20 1011.2 1011.2 1.2
30/06:00am 11.8 7.1 9.4 85 1.2 W 24 39 13 21 1011.1 1011.1 1.2
30/05:30am 12.4 6.7 8.5 77 1.9 W 28 44 15 24 1011.0 1011.0 1.2
30/05:00am 12.0 7.0 9.6 85 1.2 W 26 37 14 20 1010.7 1010.7 1.2
30/04:30am 11.8 7.2 9.7 87 1.1 W 24 33 13 18 1010.8 1010.8 1.2
30/04:00am 11.4 7.1 9.5 88 1.0 W 22 32 12 17 1010.9 1010.9 1.2
30/03:42am 11.7 6.3 9.6 87 1.1 W 28 46 15 25 1011.3 1011.3 1.0
30/03:30am 11.7 7.4 9.4 86 1.2 W 22 33 12 18 1011.2 1011.2 1.0
30/03:00am 11.7 5.3 8.7 82 1.5 W 32 46 17 25 1011.5 1011.5 1.0
30/02:30am 12.1 7.0 9.1 82 1.5 W 26 37 14 20 1011.4 1011.4 1.0
30/02:00am 12.1 5.8 8.8 80 1.7 W 32 57 17 31 1011.6 1011.6 1.0
30/01:58am 12.2 6.5 8.5 78 1.8 W 28 57 15 31 1011.6 1011.6 1.0
30/01:57am 12.4 7.1 8.5 77 1.9 W 26 57 14 31 1011.6 1011.6 1.0
30/01:30am 12.4 6.8 8.7 78 1.9 W 28 37 15 20 1011.8 1011.8 1.0
30/01:02am 12.3 6.1 9.5 83 1.4 W 32 46 17 25 1011.9 1011.9 1.0
30/01:00am 12.2 6.0 9.4 83 1.4 W 32 46 17 25 1012.0 1012.0 1.0
30/12:53am 11.8 6.5 9.9 88 1.0 W 28 46 15 25 1012.1 1012.1 1.0
30/12:39am 11.4 6.4 9.7 89 0.9 W 26 41 14 22 1012.2 1012.2 1.0
30/12:30am 10.9 5.0 9.0 88 0.9 W 30 44 16 24 1012.3 1012.3 1.0
30/12:00am 11.6 5.4 9.3 86 1.2 W 32 48 17 26 1012.5 1012.5 1.0
 
Date/Time
EDT
Temp
°C
App
Temp
°C
Dew
Point
Rel
Hum
%
Delta-T
°C
Wind Press
QNH
hPa
Press
MSL
hPa
Rain
since 9 am
mm
Dir
 
Spd
km/h
Gust
km/h
Spd
kts
Gust
kts
29/11:42pm 12.3 6.9 9.5 83 1.4 W 28 46 15 25 1012.4 1012.4 1.0
29/11:30pm 12.0 7.3 9.4 84 1.3 W 24 39 13 21 1012.4 1012.4 1.0
29/11:21pm 12.1 6.7 9.5 84 1.3 W 28 46 15 25 1012.5 1012.5 1.0
29/11:00pm 12.0 6.0 10.1 88 1.0 W 32 46 17 25 1012.7 1012.7 1.0
29/10:30pm 12.4 7.7 10.5 88 1.0 W 26 43 14 23 1012.8 1012.9 0.8
29/10:00pm 12.1 7.4 10.7 91 0.7 W 26 41 14 22 1012.9 1013.0 0.8
29/09:55pm 12.1 7.8 10.7 91 0.7 W 24 39 13 21 1012.9 1013.0 0.8
29/09:44pm 12.0 6.8 10.4 90 0.8 W 28 46 15 25 1012.8 1012.9 0.8
29/09:37pm 12.3 6.9 10.9 91 0.7 W 30 41 16 22 1012.8 1012.9 0.8
29/09:30pm 12.2 6.3 10.6 90 0.8 W 32 46 17 25 1012.8 1012.9 0.8
29/09:02pm 12.5 6.5 10.9 90 0.8 W 33 52 18 28 1012.7 1012.7 0.8
29/09:00pm 12.5 6.2 10.9 90 0.8 W 35 52 19 28 1012.7 1012.7 0.8
29/08:30pm 11.8 5.3 10.5 92 0.7 W 35 48 19 26 1012.5 1012.5 0.8
29/08:20pm 11.7 5.2 10.4 92 0.7 W 35 52 19 28 1012.5 1012.5 0.8
29/08:08pm 11.7 5.1 10.1 90 0.8 W 35 50 19 27 1012.6 1012.6 0.6
29/08:05pm 12.3 6.0 10.9 91 0.7 W 35 50 19 27 1012.5 1012.5 0.6
29/08:00pm 12.3 6.0 10.9 91 0.7 W 35 50 19 27 1012.5 1012.5 0.6
29/07:51pm 12.1 4.9 10.5 90 0.8 W 39 56 21 30 1012.5 1012.5 0.4
29/07:30pm 12.9 5.7 10.6 86 1.2 W 39 50 21 27 1012.5 1012.5 0.2
29/07:00pm 12.9 5.3 10.6 86 1.2 W 41 50 22 27 1012.4 1012.4 0.2
29/06:30pm 12.9 4.9 10.6 86 1.2 WNW 43 54 23 29 1012.4 1012.4 0.2
29/06:00pm 13.2 6.2 11.1 87 1.1 WNW 39 48 21 26 1012.7 1012.7 0.2
29/05:30pm 13.4 6.4 11.3 87 1.1 WNW 39 52 21 28 1012.8 1012.9 0.2
29/05:00pm 12.2 4.9 10.3 88 1.0 W 39 52 21 28 1013.1 1013.2 0.2
29/04:47pm 13.0 6.3 9.6 80 1.7 WNW 35 56 19 30 1013.0 1013.1 0.0
29/04:30pm 14.1 7.6 10.5 79 1.9 WNW 35 44 19 24 1013.0 1013.1 0.0
29/04:00pm 14.1 8.1 10.9 81 1.7 WNW 33 41 18 22 1013.3 1013.4 0.0
29/03:30pm 14.7 8.4 11.1 79 1.9 WNW 35 43 19 23 1013.5 1013.6 0.0
29/03:00pm 13.8 6.6 10.4 80 1.8 WNW 39 50 21 27 1013.7 1013.8 0.0
29/02:30pm 13.7 7.0 11.0 84 1.4 WNW 37 46 20 25 1013.8 1013.9 0.0
29/02:12pm 13.0 6.8 9.3 78 1.9 WNW 32 52 17 28 1014.0 1014.1 0.0
29/02:00pm 14.3 8.6 11.1 81 1.7 W 32 39 17 21 1014.0 1014.1 0.0
29/01:37pm 12.8 6.7 9.6 81 1.6 W 32 50 17 27 1014.0 1014.1 0.0
29/01:30pm 12.8 6.7 9.6 81 1.6 W 32 46 17 25 1014.0 1014.1 0.0
29/01:00pm 13.7 7.6 9.7 77 2.1 WNW 32 39 17 21 1014.1 1014.2 0.0
29/12:36pm 13.2 6.4 9.1 76 2.1 W 35 54 19 29 1014.2 1014.3 0.0
29/12:30pm 13.4 6.2 9.1 75 2.2 W 37 46 20 25 1014.2 1014.3 0.0
29/12:00pm 12.6 5.8 9.4 81 1.6 WNW 35 46 19 25 1014.4 1014.5 0.0
29/11:30am 12.6 5.2 8.5 76 2.0 W 37 52 20 28 1014.6 1014.7 0.0
29/11:00am 12.9 6.7 9.2 78 1.9 WNW 32 43 17 23 1014.5 1014.6 0.0
29/10:30am 12.5 5.7 7.8 73 2.3 W 33 54 18 29 1014.6 1014.7 0.0
29/10:00am 13.0 6.4 7.9 71 2.5 W 32 43 17 23 1014.5 1014.6 0.0
29/09:30am 12.1 4.7 8.2 77 1.9 W 37 52 20 28 1014.7 1014.8 0.0
29/09:21am 12.2 6.0 7.7 74 2.2 W 30 48 16 26 1014.6 1014.7 0.0
29/09:00am 12.2 7.0 7.1 71 2.5 W 24 39 13 21 1014.6 1014.7 0.8
29/08:30am 11.9 5.8 6.6 70 2.5 W 28 44 15 24 1014.6 1014.7 0.8
29/08:28am 11.9 5.0 6.6 70 2.5 W 32 50 17 27 1014.6 1014.7 0.8
29/08:00am 11.5 3.9 7.6 77 1.9 W 37 52 20 28 1014.3 1014.4 0.8
29/07:30am 11.7 5.0 7.4 75 2.1 W 32 44 17 24 1014.2 1014.3 0.8
29/07:00am 11.7 6.0 6.6 71 2.4 W 26 41 14 22 1014.2 1014.3 0.8
29/06:30am 11.7 5.7 7.2 74 2.2 W 28 39 15 21 1014.0 1014.1 0.8

Other Formats:

Comma delimited format used in spreadsheet applications
http://www.bom.gov.au/fwo/IDT60801/IDT60801.95954.axf

JavaScript Object Notation format (JSON) in row-major order
http://www.bom.gov.au/fwo/IDT60801/IDT60801.95954.json